Dane, Wisconsin
Current Conditions -  °F | °C
As of 8:15 AM on Thursday 27 Nov 2014 (Local Time) from KC29 Reporting Station
Overcast Overcast  
Wind Chill: 11°   Ceiling: 1500
Heat Index: 21°   Visibility: 10mi
Dew Point: 14°   Wind: 8mph
Humidity: 75%   Direction: 310°NW
Pressure: 30.35"   Gusts: NA
Location:  43.25°N, 89.5°W
Report Text: KC29 271415Z AUTO 31007KT 10SM OVC015 M06/M10 A3035 RMK AO1 T10621100
Loading
Personal Weather Stations






























Interactive Weather Map New forecast layout! Learn more

10-Day Weather Forecast

Advertisements
Track Severe Weather on mobile